Time;durP1;ratioP1;P1;durP2;ratioP2;P2;SDS_P1;SDS_P2;PMS_P1;PMS_P2;Temp;Humidity;BMP_temperature;BMP_pressure;BME280_temperature;BME280_humidity;BME280_pressure;Samples;Min_cycle;Max_cycle;Signal;HPM_P1;HPM_P2
2021/09/24 00:00:36;;;;;;;8.70;6.57;;;17.90;99.90;;;;;;4172471;28;20041;-75
2021/09/24 00:02:37;;;;;;;9.77;6.32;;;17.90;99.90;;;;;;4175501;28;20045;-75
2021/09/24 00:04:38;;;;;;;9.95;6.43;;;18.00;99.90;;;;;;4175953;28;20048;-75
2021/09/24 00:06:43;;;;;;;10.38;7.03;;;17.90;99.90;;;;;;4171256;28;20052;-75
2021/09/24 00:08:43;;;;;;;9.65;6.50;;;18.00;99.90;;;;;;4170792;28;20078;-75
2021/09/24 00:10:44;;;;;;;7.90;6.05;;;17.90;99.90;;;;;;4173072;28;20528;-75
2021/09/24 00:12:46;;;;;;;10.40;7.00;;;17.90;99.90;;;;;;4173134;28;20666;-74
2021/09/24 00:14:46;;;;;;;10.57;6.88;;;18.00;99.90;;;;;;4171473;28;20029;-75
2021/09/24 00:16:47;;;;;;;8.70;6.10;;;18.00;99.90;;;;;;4171432;28;20044;-75
2021/09/24 00:18:48;;;;;;;10.25;6.95;;;18.00;99.90;;;;;;4173339;28;20024;-75
2021/09/24 00:20:49;;;;;;;8.50;6.28;;;17.90;99.90;;;;;;4171536;28;20127;-75
2021/09/24 00:22:49;;;;;;;9.80;7.45;;;17.90;99.90;;;;;;4167053;28;20045;-75
2021/09/24 00:24:50;;;;;;;7.47;5.85;;;18.00;99.90;;;;;;4171649;28;20044;-74
2021/09/24 00:26:51;;;;;;;8.10;6.05;;;17.90;99.90;;;;;;4169808;28;22926;-75
2021/09/24 00:28:51;;;;;;;8.88;6.35;;;17.90;99.90;;;;;;4173326;28;20481;-75
2021/09/24 00:30:52;;;;;;;9.90;7.05;;;17.90;99.90;;;;;;4171734;28;20045;-75
2021/09/24 00:32:53;;;;;;;9.63;6.15;;;17.90;99.90;;;;;;4170501;28;20099;-75
2021/09/24 00:34:53;;;;;;;9.00;6.68;;;18.00;99.90;;;;;;4172753;28;20053;-75
2021/09/24 00:36:54;;;;;;;8.40;5.97;;;17.90;99.90;;;;;;4174905;28;20091;-76
2021/09/24 00:38:54;;;;;;;10.80;6.65;;;18.00;99.90;;;;;;4171292;28;20037;-75
2021/09/24 00:40:55;;;;;;;12.95;6.78;;;17.90;99.90;;;;;;4170400;28;20110;-75
2021/09/24 00:42:56;;;;;;;10.32;6.28;;;17.90;99.90;;;;;;4168309;28;20092;-75
2021/09/24 00:44:57;;;;;;;9.50;5.43;;;17.90;99.90;;;;;;4155798;28;20034;-75
2021/09/24 00:46:57;;;;;;;7.70;5.65;;;17.90;99.90;;;;;;4155716;28;20509;-75
2021/09/24 00:48:58;;;;;;;9.43;5.03;;;17.90;99.90;;;;;;4152110;28;20711;-75
2021/09/24 00:50:59;;;;;;;7.00;5.30;;;17.90;99.90;;;;;;4153748;28;22198;-75
2021/09/24 00:53:00;;;;;;;10.68;6.20;;;17.90;99.90;;;;;;4155732;28;20038;-75
2021/09/24 00:55:01;;;;;;;8.90;4.68;;;17.90;99.90;;;;;;4152676;28;20064;-75
2021/09/24 00:57:03;;;;;;;6.97;4.20;;;17.80;99.90;;;;;;4155603;28;20045;-75
2021/09/24 00:59:03;;;;;;;9.73;4.63;;;17.90;99.90;;;;;;4156985;28;20068;-75
2021/09/24 01:01:04;;;;;;;7.82;4.43;;;17.90;99.90;;;;;;4150458;28;20042;-74
2021/09/24 01:03:05;;;;;;;9.77;5.35;;;17.80;99.90;;;;;;4152837;28;20037;-75
2021/09/24 01:05:08;;;;;;;6.28;4.57;;;17.80;99.90;;;;;;4154875;28;20044;-75
2021/09/24 01:07:11;;;;;;;7.55;4.47;;;17.80;99.90;;;;;;4152232;28;20120;-75
2021/09/24 01:09:12;;;;;;;7.65;4.50;;;17.80;99.90;;;;;;4154350;28;20593;-75
2021/09/24 01:11:12;;;;;;;9.52;4.63;;;17.80;99.90;;;;;;4156776;28;20043;-75
2021/09/24 01:13:13;;;;;;;6.68;4.40;;;17.80;99.90;;;;;;4171666;28;20519;-75
2021/09/24 01:15:16;;;;;;;5.78;4.35;;;17.80;99.90;;;;;;4176101;28;20116;-75
2021/09/24 01:17:17;;;;;;;7.00;4.72;;;17.80;99.90;;;;;;4179815;28;20040;-75
2021/09/24 01:19:17;;;;;;;7.53;4.88;;;17.80;99.90;;;;;;4166825;28;20522;-75
2021/09/24 01:21:18;;;;;;;6.13;4.63;;;17.80;99.90;;;;;;4172571;28;20057;-75
2021/09/24 01:23:19;;;;;;;9.38;4.55;;;17.80;99.90;;;;;;4170474;28;20032;-75
2021/09/24 01:25:21;;;;;;;10.00;5.57;;;17.80;99.90;;;;;;4169578;28;20508;-75
2021/09/24 01:27:22;;;;;;;10.85;5.43;;;17.80;99.90;;;;;;4172496;28;20400;-75
2021/09/24 01:29:27;;;;;;;7.47;4.75;;;17.70;99.90;;;;;;4170660;28;20121;-75
2021/09/24 01:31:27;;;;;;;9.32;6.00;;;17.70;99.90;;;;;;4167642;28;20049;-75
2021/09/24 01:33:28;;;;;;;9.35;5.68;;;17.70;99.90;;;;;;4170238;28;20037;-75
2021/09/24 01:35:29;;;;;;;8.80;6.13;;;17.70;99.90;;;;;;4167924;28;20040;-75
2021/09/24 01:37:30;;;;;;;11.85;7.32;;;17.70;99.90;;;;;;4166429;28;20383;-75
2021/09/24 01:39:30;;;;;;;11.60;7.53;;;17.70;99.90;;;;;;4170913;28;20037;-75
2021/09/24 01:41:31;;;;;;;10.20;6.85;;;17.70;99.90;;;;;;4171872;28;20032;-75
2021/09/24 01:43:33;;;;;;;10.00;6.78;;;17.70;99.90;;;;;;4168068;28;20021;-75
2021/09/24 01:45:34;;;;;;;9.40;6.75;;;17.70;99.90;;;;;;4168925;28;20040;-75
2021/09/24 01:47:35;;;;;;;9.75;7.50;;;17.70;99.90;;;;;;4169123;28;20037;-75
2021/09/24 01:49:36;;;;;;;12.15;7.72;;;17.70;99.90;;;;;;4169802;28;20064;-75
2021/09/24 01:51:38;;;;;;;9.43;6.60;;;17.70;99.90;;;;;;4170792;28;20053;-75
2021/09/24 01:53:39;;;;;;;9.32;6.90;;;17.70;99.90;;;;;;4169359;28;20060;-75
2021/09/24 01:55:40;;;;;;;12.40;8.65;;;17.80;99.90;;;;;;4171612;28;21011;-75
2021/09/24 01:57:41;;;;;;;11.75;8.00;;;17.70;99.90;;;;;;4171405;28;20037;-75
2021/09/24 01:59:41;;;;;;;14.00;8.40;;;17.70;99.90;;;;;;4172832;28;20485;-75
2021/09/24 02:01:42;;;;;;;13.07;8.55;;;17.80;99.90;;;;;;4169567;28;20040;-74
2021/09/24 02:03:43;;;;;;;11.40;7.65;;;17.70;99.90;;;;;;4172060;28;20028;-75
2021/09/24 02:05:44;;;;;;;14.70;9.95;;;17.70;99.90;;;;;;4171995;28;20052;-74
2021/09/24 02:07:44;;;;;;;15.98;9.20;;;17.70;99.90;;;;;;4165176;28;20030;-75
2021/09/24 02:09:45;;;;;;;13.82;10.10;;;17.70;99.90;;;;;;4156033;28;20069;-75
2021/09/24 02:11:45;;;;;;;13.27;8.00;;;17.70;99.90;;;;;;4170510;28;20493;-75
2021/09/24 02:13:46;;;;;;;12.73;8.98;;;17.70;99.90;;;;;;4174748;28;20752;-75
2021/09/24 02:15:47;;;;;;;10.70;8.13;;;17.70;99.90;;;;;;4172234;28;20033;-75
2021/09/24 02:17:48;;;;;;;14.65;9.25;;;17.70;99.90;;;;;;4172698;28;20033;-75
2021/09/24 02:19:48;;;;;;;12.95;8.65;;;17.60;99.90;;;;;;4154380;28;20103;-74
2021/09/24 02:21:49;;;;;;;13.88;8.38;;;17.60;99.90;;;;;;4170329;28;20420;-75
2021/09/24 02:23:50;;;;;;;13.15;8.88;;;17.70;99.90;;;;;;4171984;28;20036;-75
2021/09/24 02:25:50;;;;;;;12.05;8.20;;;17.70;99.90;;;;;;4171576;28;20061;-75
2021/09/24 02:27:51;;;;;;;11.38;7.85;;;17.70;99.90;;;;;;4171045;28;20096;-74
2021/09/24 02:29:51;;;;;;;11.98;8.30;;;17.70;99.90;;;;;;4166722;28;20041;-75
2021/09/24 02:31:52;;;;;;;11.88;8.52;;;17.70;99.90;;;;;;4169151;28;20080;-75
2021/09/24 02:33:53;;;;;;;11.27;8.10;;;17.70;99.90;;;;;;4175915;28;20045;-75
2021/09/24 02:35:53;;;;;;;12.88;8.93;;;17.70;99.90;;;;;;4175243;28;20137;-75
2021/09/24 02:37:54;;;;;;;14.82;9.27;;;17.80;99.90;;;;;;4174812;28;20048;-75
2021/09/24 02:39:55;;;;;;;12.65;9.05;;;17.80;99.90;;;;;;4170934;28;20033;-75
2021/09/24 02:41:55;;;;;;;12.77;9.48;;;17.80;99.90;;;;;;4174501;28;20116;-75
2021/09/24 02:43:57;;;;;;;13.10;9.23;;;17.80;99.90;;;;;;4170389;28;20040;-75
2021/09/24 02:45:58;;;;;;;13.57;8.57;;;17.80;99.90;;;;;;4174683;28;20056;-74
2021/09/24 02:47:58;;;;;;;13.13;8.85;;;17.80;99.90;;;;;;4175221;28;21083;-75
2021/09/24 02:49:59;;;;;;;11.50;8.93;;;17.80;99.90;;;;;;4175751;28;20040;-75
2021/09/24 02:51:59;;;;;;;14.13;10.50;;;17.80;99.90;;;;;;4176849;28;20063;-75
2021/09/24 02:54:00;;;;;;;12.55;9.23;;;17.80;99.90;;;;;;4172518;28;20109;-75
2021/09/24 02:56:01;;;;;;;14.55;9.02;;;17.80;99.90;;;;;;4174311;28;20041;-75
2021/09/24 02:58:01;;;;;;;14.38;9.10;;;17.80;99.90;;;;;;4176375;28;20697;-75
2021/09/24 03:00:06;;;;;;;15.48;9.65;;;17.80;99.90;;;;;;4175153;28;20025;-75
2021/09/24 03:02:06;;;;;;;14.27;9.05;;;17.80;99.90;;;;;;4172511;28;20057;-75
2021/09/24 03:04:07;;;;;;;13.65;9.32;;;17.80;99.90;;;;;;4173715;28;20041;-75
2021/09/24 03:06:08;;;;;;;11.70;8.15;;;17.80;99.90;;;;;;4171035;28;20036;-75
2021/09/24 03:08:09;;;;;;;20.75;11.05;;;17.80;99.90;;;;;;4171778;28;20044;-75
2021/09/24 03:10:11;;;;;;;13.85;9.95;;;17.70;99.90;;;;;;4173645;28;20056;-75
2021/09/24 03:12:11;;;;;;;17.27;10.57;;;17.70;99.90;;;;;;4174585;28;20051;-75
2021/09/24 03:14:12;;;;;;;10.90;8.88;;;17.70;99.90;;;;;;4174348;28;20029;-75
2021/09/24 03:16:18;;;;;;;13.32;9.35;;;17.70;99.90;;;;;;4173411;28;20043;-75
2021/09/24 03:18:18;;;;;;;14.73;10.23;;;17.70;99.90;;;;;;4173171;28;20140;-75
2021/09/24 03:20:19;;;;;;;13.75;9.63;;;17.70;99.90;;;;;;4172521;28;20040;-75
2021/09/24 03:22:20;;;;;;;12.85;9.18;;;17.70;99.90;;;;;;4174310;28;20064;-74
2021/09/24 03:24:20;;;;;;;17.05;9.95;;;17.70;99.90;;;;;;4169687;28;20049;-75
2021/09/24 03:26:21;;;;;;;15.27;10.18;;;17.70;99.90;;;;;;4175537;28;20057;-75
2021/09/24 03:28:22;;;;;;;15.43;9.93;;;17.60;99.90;;;;;;4175061;28;20033;-74
2021/09/24 03:30:24;;;;;;;15.80;9.73;;;17.70;99.90;;;;;;4171807;28;20105;-75
2021/09/24 03:32:25;;;;;;;14.47;10.17;;;17.60;99.90;;;;;;4175750;28;20048;-74
2021/09/24 03:34:26;;;;;;;14.65;9.85;;;17.70;99.90;;;;;;4174521;28;20041;-75
2021/09/24 03:36:28;;;;;;;21.10;11.90;;;17.60;99.90;;;;;;4176013;28;20033;-75
2021/09/24 03:38:28;;;;;;;20.73;11.43;;;17.60;99.90;;;;;;4174120;28;20060;-75
2021/09/24 03:40:29;;;;;;;18.58;11.13;;;17.60;99.90;;;;;;4176111;28;20037;-75
2021/09/24 03:42:29;;;;;;;19.92;11.80;;;17.60;99.90;;;;;;4170401;28;20695;-75
2021/09/24 03:44:31;;;;;;;26.55;14.07;;;17.60;99.90;;;;;;4175768;28;20040;-75
2021/09/24 03:46:32;;;;;;;20.33;10.82;;;17.60;99.90;;;;;;4174521;28;20136;-75
2021/09/24 03:48:32;;;;;;;18.70;10.68;;;17.50;99.90;;;;;;4173502;28;20035;-75
2021/09/24 03:50:33;;;;;;;22.08;12.70;;;17.60;99.90;;;;;;4176167;28;20101;-75
2021/09/24 03:52:33;;;;;;;19.60;12.27;;;17.60;99.90;;;;;;4171870;28;20033;-75
2021/09/24 03:54:34;;;;;;;30.27;15.35;;;17.60;99.90;;;;;;4173698;28;20059;-75
2021/09/24 03:56:35;;;;;;;37.33;15.90;;;17.50;99.90;;;;;;4174288;28;20041;-75
2021/09/24 03:58:35;;;;;;;29.10;14.52;;;17.50;99.90;;;;;;4174321;28;20120;-75
2021/09/24 04:00:36;;;;;;;24.58;13.40;;;17.50;99.90;;;;;;4173833;28;20037;-75
2021/09/24 04:02:37;;;;;;;24.75;14.48;;;17.50;99.90;;;;;;4173292;28;20029;-75
2021/09/24 04:04:37;;;;;;;22.05;13.13;;;17.50;99.90;;;;;;4170518;28;20067;-75
2021/09/24 04:06:38;;;;;;;24.13;13.68;;;17.60;99.90;;;;;;4173785;28;20441;-75
2021/09/24 04:08:39;;;;;;;41.17;20.42;;;17.60;99.90;;;;;;4173773;28;20040;-75
2021/09/24 04:10:40;;;;;;;34.92;18.50;;;17.60;99.90;;;;;;4173835;28;20044;-75
2021/09/24 04:12:42;;;;;;;30.40;16.77;;;17.60;99.90;;;;;;4173179;28;20605;-75
2021/09/24 04:14:42;;;;;;;31.48;17.67;;;17.60;99.90;;;;;;4157599;28;20037;-75
2021/09/24 04:16:43;;;;;;;43.45;20.23;;;17.60;99.90;;;;;;4174331;28;20534;-75
2021/09/24 04:18:44;;;;;;;48.03;24.80;;;17.60;99.90;;;;;;4172590;28;20032;-75
2021/09/24 04:20:46;;;;;;;44.70;21.30;;;17.60;99.90;;;;;;4174750;28;20037;-75
2021/09/24 04:22:47;;;;;;;44.38;24.58;;;17.60;99.90;;;;;;4172212;28;20056;-75
2021/09/24 04:24:48;;;;;;;40.08;22.08;;;17.50;99.90;;;;;;4175548;28;20078;-75
2021/09/24 04:26:49;;;;;;;47.13;24.65;;;17.50;99.90;;;;;;4173056;28;20135;-75
2021/09/24 04:28:50;;;;;;;39.22;21.85;;;17.50;99.90;;;;;;4174108;28;20106;-75
2021/09/24 04:30:50;;;;;;;44.10;23.83;;;17.50;99.90;;;;;;4172013;28;20032;-74
2021/09/24 04:32:51;;;;;;;43.88;22.73;;;17.50;99.90;;;;;;4174442;28;20029;-75
2021/09/24 04:34:52;;;;;;;43.33;23.05;;;17.40;99.90;;;;;;4171474;28;20056;-75
2021/09/24 04:36:52;;;;;;;43.72;23.42;;;17.40;99.90;;;;;;4172395;28;20377;-74
2021/09/24 04:38:53;;;;;;;47.72;24.92;;;17.50;99.90;;;;;;4166100;28;20033;-75
2021/09/24 04:40:54;;;;;;;41.42;21.92;;;17.40;99.90;;;;;;4171240;28;20160;-75
2021/09/24 04:42:54;;;;;;;43.05;23.00;;;17.40;99.90;;;;;;4169632;28;20112;-76
2021/09/24 04:44:55;;;;;;;36.13;20.48;;;17.40;99.90;;;;;;4171947;28;20125;-76
2021/09/24 04:46:55;;;;;;;41.30;23.83;;;17.40;99.90;;;;;;4162705;28;20032;-75
2021/09/24 04:48:57;;;;;;;48.50;23.55;;;17.40;99.90;;;;;;4167183;28;20710;-76
2021/09/24 04:50:59;;;;;;;42.35;24.35;;;17.40;99.90;;;;;;4166115;28;20053;-76
2021/09/24 04:53:00;;;;;;;45.03;23.20;;;17.40;99.90;;;;;;4166840;28;20116;-76
2021/09/24 04:55:00;;;;;;;39.55;23.00;;;17.40;99.90;;;;;;4167396;28;20302;-76
2021/09/24 04:57:01;;;;;;;50.60;26.05;;;17.40;99.90;;;;;;4165212;28;20041;-76
2021/09/24 04:59:02;;;;;;;42.90;24.75;;;17.40;99.90;;;;;;4168937;28;20064;-76
2021/09/24 05:01:02;;;;;;;37.20;22.50;;;17.30;99.90;;;;;;4168390;28;20488;-75
2021/09/24 05:03:03;;;;;;;42.75;24.83;;;17.40;99.90;;;;;;4166571;28;20033;-76
2021/09/24 05:05:04;;;;;;;45.05;23.98;;;17.30;99.90;;;;;;4167130;28;20031;-76
2021/09/24 05:07:05;;;;;;;53.70;28.65;;;17.30;99.90;;;;;;4168857;28;20048;-75
2021/09/24 05:09:05;;;;;;;40.40;24.25;;;17.30;99.90;;;;;;4168045;28;20090;-76
2021/09/24 05:11:06;;;;;;;46.17;25.80;;;17.30;99.90;;;;;;4149232;28;20124;-76
2021/09/24 05:13:07;;;;;;;44.10;23.98;;;17.30;99.90;;;;;;4166105;28;20041;-76
2021/09/24 05:15:08;;;;;;;37.53;22.00;;;17.30;99.90;;;;;;4161178;28;20345;-76
2021/09/24 05:17:09;;;;;;;43.35;25.10;;;17.30;99.90;;;;;;4166898;28;20029;-76
2021/09/24 05:19:09;;;;;;;41.88;25.40;;;17.30;99.90;;;;;;4165351;28;20550;-76
2021/09/24 05:21:10;;;;;;;44.55;25.50;;;17.30;99.90;;;;;;4168425;28;20044;-76
2021/09/24 05:23:12;;;;;;;44.33;24.20;;;17.30;99.90;;;;;;4160923;28;21262;-76
2021/09/24 05:25:13;;;;;;;36.15;22.40;;;17.20;99.90;;;;;;4167686;28;20036;-76
2021/09/24 05:27:13;;;;;;;39.63;24.65;;;17.20;99.90;;;;;;4166449;28;20061;-76
2021/09/24 05:29:14;;;;;;;42.92;25.35;;;17.20;99.90;;;;;;4167647;28;20136;-76
2021/09/24 05:31:15;;;;;;;36.03;23.30;;;17.10;99.90;;;;;;4164695;28;20048;-76
2021/09/24 05:33:15;;;;;;;45.40;24.50;;;17.10;99.90;;;;;;4165311;28;20159;-76
2021/09/24 05:35:16;;;;;;;35.22;21.75;;;17.10;99.90;;;;;;4167935;28;20151;-76
2021/09/24 05:37:16;;;;;;;38.75;23.48;;;17.10;99.90;;;;;;4164464;28;20044;-76
2021/09/24 05:39:18;;;;;;;38.60;23.23;;;17.10;99.90;;;;;;4165899;28;20329;-76
2021/09/24 05:41:19;;;;;;;34.83;21.55;;;17.00;99.90;;;;;;4145600;28;20053;-76
2021/09/24 05:43:20;;;;;;;38.88;23.08;;;17.00;99.90;;;;;;4151735;28;20103;-76
2021/09/24 05:45:20;;;;;;;48.05;25.95;;;17.00;99.90;;;;;;4147064;28;20531;-77
2021/09/24 05:47:22;;;;;;;37.15;23.17;;;17.00;99.90;;;;;;4148277;28;20042;-76
2021/09/24 05:49:23;;;;;;;38.03;22.57;;;16.90;99.90;;;;;;4147021;28;20045;-76
2021/09/24 05:51:24;;;;;;;37.25;21.60;;;16.90;99.90;;;;;;4148703;28;20079;-76
2021/09/24 05:53:24;;;;;;;30.40;20.60;;;16.90;99.90;;;;;;4147412;28;20814;-76
2021/09/24 05:55:25;;;;;;;32.95;19.58;;;16.90;99.90;;;;;;4147515;28;20103;-76
2021/09/24 05:57:26;;;;;;;35.53;20.90;;;16.80;99.90;;;;;;4146840;28;20084;-77
2021/09/24 05:59:26;;;;;;;33.75;20.27;;;16.80;99.90;;;;;;4147041;28;20052;-77
2021/09/24 06:01:27;;;;;;;28.63;18.17;;;16.80;99.90;;;;;;4148116;28;20512;-76
2021/09/24 06:03:28;;;;;;;27.08;16.50;;;16.80;99.90;;;;;;4148024;28;20052;-76
2021/09/24 06:05:28;;;;;;;27.55;18.15;;;16.80;99.90;;;;;;4144761;28;20048;-76
2021/09/24 06:07:29;;;;;;;25.52;16.30;;;16.80;99.90;;;;;;4147587;28;20041;-77
2021/09/24 06:09:29;;;;;;;28.15;17.23;;;16.80;99.90;;;;;;4150291;28;20060;-76
2021/09/24 06:11:30;;;;;;;29.15;16.77;;;16.80;99.90;;;;;;4147594;28;20037;-76
2021/09/24 06:13:32;;;;;;;26.33;16.40;;;16.70;99.90;;;;;;4149528;28;20057;-76
2021/09/24 06:15:32;;;;;;;27.27;16.58;;;16.70;99.90;;;;;;4132535;28;20048;-76
2021/09/24 06:17:33;;;;;;;29.67;18.40;;;16.70;99.90;;;;;;4131696;28;20417;-76
2021/09/24 06:19:34;;;;;;;26.15;17.05;;;16.60;99.90;;;;;;4151330;28;20245;-76
2021/09/24 06:21:34;;;;;;;27.70;17.60;;;16.60;99.90;;;;;;4151012;28;20037;-76
2021/09/24 06:23:35;;;;;;;26.73;16.42;;;16.60;99.90;;;;;;4146332;28;20043;-76
2021/09/24 06:25:36;;;;;;;21.48;14.07;;;16.60;99.90;;;;;;4147652;28;20076;-76
2021/09/24 06:27:36;;;;;;;23.95;16.90;;;16.60;99.90;;;;;;4148160;28;20030;-76
2021/09/24 06:29:37;;;;;;;22.70;14.80;;;16.60;99.90;;;;;;4149911;28;20109;-76
2021/09/24 06:31:38;;;;;;;23.65;14.77;;;16.60;99.90;;;;;;4146644;28;20508;-76
2021/09/24 06:33:38;;;;;;;22.85;15.88;;;16.60;99.90;;;;;;4146608;28;20436;-76
2021/09/24 06:35:39;;;;;;;21.55;15.27;;;16.60;99.90;;;;;;4148908;28;20026;-76
2021/09/24 06:37:40;;;;;;;25.48;16.50;;;16.50;99.90;;;;;;4147284;28;20116;-76
2021/09/24 06:39:41;;;;;;;19.98;13.93;;;16.50;99.90;;;;;;4150078;28;20660;-76
2021/09/24 06:41:42;;;;;;;18.60;13.18;;;16.50;99.90;;;;;;4149417;28;20375;-76
2021/09/24 06:43:42;;;;;;;22.00;13.32;;;16.50;99.90;;;;;;4149174;28;20045;-76
2021/09/24 06:45:43;;;;;;;22.25;13.55;;;16.60;99.90;;;;;;4147182;28;20485;-76
2021/09/24 06:47:44;;;;;;;19.65;13.05;;;16.50;99.90;;;;;;4146714;28;20050;-76
2021/09/24 06:49:45;;;;;;;19.70;12.73;;;16.50;99.90;;;;;;4149808;28;20806;-76
2021/09/24 06:51:45;;;;;;;23.20;14.90;;;16.50;99.90;;;;;;4149670;28;20489;-76
2021/09/24 06:53:46;;;;;;;18.65;13.25;;;16.50;99.90;;;;;;4152515;28;20046;-76
2021/09/24 06:55:46;;;;;;;19.60;12.65;;;16.60;99.90;;;;;;4152498;28;20049;-76
2021/09/24 06:57:48;;;;;;;19.90;12.80;;;16.60;99.90;;;;;;4153138;28;20053;-75
2021/09/24 06:59:49;;;;;;;18.90;12.02;;;16.60;99.90;;;;;;4153695;28;20455;-76
2021/09/24 07:01:50;;;;;;;16.08;11.30;;;16.50;99.90;;;;;;4152231;28;20037;-76
2021/09/24 07:03:51;;;;;;;22.58;13.75;;;16.60;99.90;;;;;;4152294;28;21161;-76
2021/09/24 07:05:51;;;;;;;15.07;10.85;;;16.60;99.90;;;;;;4153981;28;20041;-76
2021/09/24 07:07:52;;;;;;;17.30;11.77;;;16.60;99.90;;;;;;4153691;28;20132;-76
2021/09/24 07:09:56;;;;;;;21.45;12.77;;;16.70;99.90;;;;;;4153360;28;20047;-76
2021/09/24 07:11:56;;;;;;;20.50;13.43;;;16.70;99.90;;;;;;4152676;28;20103;-75
2021/09/24 07:13:58;;;;;;;18.13;12.52;;;16.70;99.90;;;;;;4152639;28;20041;-76
2021/09/24 07:15:58;;;;;;;23.45;14.02;;;16.70;99.90;;;;;;4151905;28;20049;-73
2021/09/24 07:17:59;;;;;;;19.45;12.77;;;16.60;99.90;;;;;;4152184;28;20414;-73
2021/09/24 07:20:01;;;;;;;15.30;10.15;;;16.60;99.90;;;;;;4152188;28;20677;-73
2021/09/24 07:22:02;;;;;;;20.48;12.50;;;16.60;99.90;;;;;;4152858;28;20505;-73
2021/09/24 07:24:03;;;;;;;19.42;13.20;;;16.70;99.90;;;;;;4135230;28;20038;-73
2021/09/24 07:26:04;;;;;;;19.08;11.82;;;16.60;99.90;;;;;;4151807;28;20033;-73
2021/09/24 07:28:04;;;;;;;16.85;11.93;;;16.70;99.90;;;;;;4152871;28;20048;-73
2021/09/24 07:30:05;;;;;;;22.60;13.45;;;16.60;99.90;;;;;;4153458;28;20386;-73
2021/09/24 07:32:06;;;;;;;17.45;11.93;;;16.60;99.90;;;;;;4153364;28;20493;-76
2021/09/24 07:34:07;;;;;;;24.15;13.13;;;16.70;99.90;;;;;;4134320;28;20145;-76
2021/09/24 07:36:08;;;;;;;19.25;12.35;;;16.70;99.90;;;;;;4151547;28;20064;-76
2021/09/24 07:38:08;;;;;;;18.27;11.73;;;16.70;99.90;;;;;;4151086;28;20124;-76
2021/09/24 07:40:10;;;;;;;17.42;12.40;;;16.70;99.90;;;;;;4150768;28;20049;-76
2021/09/24 07:42:10;;;;;;;20.30;12.73;;;16.70;99.90;;;;;;4153828;28;20112;-76
2021/09/24 07:44:11;;;;;;;18.25;11.90;;;16.70;99.90;;;;;;4150920;28;20525;-77
2021/09/24 07:46:11;;;;;;;19.33;13.38;;;16.70;99.90;;;;;;4148134;28;20133;-76
2021/09/24 07:48:12;;;;;;;17.75;13.20;;;16.60;99.90;;;;;;4148456;28;20121;-76
2021/09/24 07:50:14;;;;;;;19.13;14.18;;;16.60;99.90;;;;;;4150190;28;20109;-76
2021/09/24 07:52:14;;;;;;;21.98;13.23;;;16.60;99.90;;;;;;4150322;28;20077;-75
2021/09/24 07:54:15;;;;;;;18.63;12.15;;;16.60;99.90;;;;;;4150039;28;20470;-76
2021/09/24 07:56:15;;;;;;;14.75;11.50;;;16.60;99.90;;;;;;4152101;28;20056;-76
2021/09/24 07:58:16;;;;;;;17.65;11.98;;;16.70;99.90;;;;;;4152647;28;20146;-75
2021/09/24 08:00:17;;;;;;;15.77;11.02;;;16.70;99.90;;;;;;4152877;28;20045;-76
2021/09/24 08:02:19;;;;;;;14.85;10.48;;;16.70;99.90;;;;;;4150422;28;20166;-76
2021/09/24 08:04:19;;;;;;;14.07;9.93;;;16.70;99.90;;;;;;4132510;28;20096;-75
2021/09/24 08:06:20;;;;;;;13.52;10.02;;;16.80;99.90;;;;;;4151139;28;20037;-76
2021/09/24 08:08:21;;;;;;;12.88;9.30;;;16.80;99.90;;;;;;4150715;28;20045;-75
2021/09/24 08:10:24;;;;;;;20.38;11.63;;;16.80;99.90;;;;;;4148837;28;20045;-76
2021/09/24 08:12:25;;;;;;;16.25;9.63;;;16.80;99.90;;;;;;4150375;28;20053;-76
2021/09/24 08:14:26;;;;;;;19.13;12.25;;;16.90;99.90;;;;;;4152071;28;20651;-76
2021/09/24 08:16:26;;;;;;;15.20;10.40;;;16.80;99.90;;;;;;4150028;28;20041;-76
2021/09/24 08:18:27;;;;;;;14.32;10.63;;;16.80;99.90;;;;;;4149823;28;20586;-76
2021/09/24 08:20:28;;;;;;;13.45;9.57;;;16.80;99.90;;;;;;4150759;28;20049;-76
2021/09/24 08:22:31;;;;;;;14.85;10.68;;;16.80;99.90;;;;;;4149975;28;20046;-76
2021/09/24 08:24:32;;;;;;;14.55;9.63;;;16.80;99.90;;;;;;4149486;28;20120;-76
2021/09/24 08:26:33;;;;;;;12.13;8.55;;;16.80;99.90;;;;;;4150634;28;20126;-76
2021/09/24 08:28:33;;;;;;;17.38;10.93;;;16.90;99.90;;;;;;4149820;28;20409;-76
2021/09/24 08:30:34;;;;;;;12.95;8.63;;;16.90;99.90;;;;;;4151924;28;20053;-76
2021/09/24 08:32:38;;;;;;;13.02;8.70;;;16.80;99.90;;;;;;4152582;28;20187;-76
2021/09/24 08:34:39;;;;;;;15.15;9.15;;;16.90;99.90;;;;;;4150650;28;20045;-75
2021/09/24 08:36:40;;;;;;;13.00;9.15;;;16.90;99.90;;;;;;4153178;28;20709;-76
2021/09/24 08:38:40;;;;;;;13.70;8.63;;;16.90;99.90;;;;;;4151526;28;20044;-75
2021/09/24 08:40:41;;;;;;;14.18;9.65;;;17.00;99.90;;;;;;4150658;28;20533;-75
2021/09/24 08:42:44;;;;;;;14.15;9.35;;;17.00;99.90;;;;;;4152858;28;20497;-75
2021/09/24 08:44:49;;;;;;;14.57;8.95;;;17.00;99.90;;;;;;4150524;28;20053;-75
2021/09/24 08:46:50;;;;;;;13.57;8.63;;;17.00;99.90;;;;;;4151826;28;20041;-76
2021/09/24 08:48:52;;;;;;;16.17;10.48;;;17.00;99.90;;;;;;4133288;28;20061;-76
2021/09/24 08:50:55;;;;;;;13.20;10.07;;;17.00;99.90;;;;;;4151571;28;20049;-75
2021/09/24 08:52:57;;;;;;;12.77;8.60;;;17.00;99.90;;;;;;4150327;28;20167;-76
2021/09/24 08:54:57;;;;;;;15.43;10.38;;;17.00;99.90;;;;;;4149979;28;21213;-76
2021/09/24 08:56:58;;;;;;;13.02;9.38;;;17.00;99.90;;;;;;4151521;28;20072;-76
2021/09/24 08:58:59;;;;;;;13.60;9.68;;;17.00;99.90;;;;;;4149201;28;20113;-76
2021/09/24 09:00:59;;;;;;;15.82;9.25;;;17.00;99.90;;;;;;4151784;28;20034;-76
2021/09/24 09:03:11;;;;;;;12.68;9.32;;;17.10;99.90;;;;;;4151978;28;20033;-76
2021/09/24 09:05:11;;;;;;;15.48;9.25;;;17.10;99.90;;;;;;4150022;28;20397;-75
2021/09/24 09:07:16;;;;;;;12.88;9.57;;;17.10;99.90;;;;;;4152846;28;20025;-75
2021/09/24 09:09:16;;;;;;;12.02;8.50;;;17.20;99.90;;;;;;4152080;28;20064;-76
2021/09/24 09:11:19;;;;;;;13.40;8.95;;;17.20;99.90;;;;;;4151665;28;20047;-76
2021/09/24 09:13:20;;;;;;;15.23;10.23;;;17.20;99.90;;;;;;4150203;28;20839;-75
2021/09/24 09:15:23;;;;;;;14.35;9.75;;;17.20;99.90;;;;;;4148927;28;20493;-75
2021/09/24 09:17:28;;;;;;;15.75;10.43;;;17.30;99.90;;;;;;4151919;28;20064;-76
2021/09/24 09:19:28;;;;;;;11.88;9.27;;;17.20;99.90;;;;;;4149980;28;20049;-75
2021/09/24 09:21:29;;;;;;;14.73;10.15;;;17.30;99.90;;;;;;4149236;28;22700;-75
2021/09/24 09:23:31;;;;;;;15.75;11.18;;;17.30;99.90;;;;;;4130938;28;20060;-75
2021/09/24 09:25:32;;;;;;;16.33;9.55;;;17.30;99.90;;;;;;4151821;28;20373;-76
2021/09/24 09:27:32;;;;;;;16.60;9.52;;;17.30;99.90;;;;;;4148955;28;20109;-76
2021/09/24 09:29:33;;;;;;;15.60;9.95;;;17.40;99.90;;;;;;4147630;28;20464;-75
2021/09/24 09:31:33;;;;;;;13.90;9.73;;;17.40;99.90;;;;;;4150195;28;20044;-76
2021/09/24 09:33:36;;;;;;;14.05;8.57;;;17.40;99.90;;;;;;4146558;28;20049;-76
2021/09/24 09:35:40;;;;;;;11.90;8.02;;;17.40;99.90;;;;;;4150651;28;20405;-76
2021/09/24 09:37:41;;;;;;;12.05;8.73;;;17.50;99.90;;;;;;4167539;28;20032;-75
2021/09/24 09:39:42;;;;;;;18.45;10.07;;;17.50;99.90;;;;;;4168074;28;20118;-76
2021/09/24 09:41:53;;;;;;;15.98;9.95;;;17.50;99.90;;;;;;4163538;28;20647;-76
2021/09/24 09:43:59;;;;;;;12.10;7.82;;;17.50;99.90;;;;;;4171159;28;20163;-75
2021/09/24 09:46:03;;;;;;;10.68;7.63;;;17.60;99.90;;;;;;4171783;28;20041;-76
2021/09/24 09:48:12;;;;;;;13.05;8.38;;;17.60;99.90;;;;;;4170932;28;20041;-75
2021/09/24 09:50:26;;;;;;;12.60;8.20;;;17.70;99.90;;;;;;4168504;28;20052;-76
2021/09/24 09:52:30;;;;;;;15.40;9.13;;;17.60;99.90;;;;;;4167332;28;20048;-75
2021/09/24 09:54:32;;;;;;;13.77;9.10;;;17.60;99.90;;;;;;4169256;28;20402;-75
2021/09/24 09:56:38;;;;;;;13.27;7.85;;;17.60;99.90;;;;;;4169878;28;20041;-75
2021/09/24 09:58:40;;;;;;;13.73;9.00;;;17.60;99.90;;;;;;4172183;28;20043;-75
2021/09/24 10:00:54;;;;;;;13.13;9.02;;;17.60;99.90;;;;;;4169816;28;20555;-76
2021/09/24 10:03:03;;;;;;;14.98;9.77;;;17.70;99.90;;;;;;4165861;28;20126;-76
2021/09/24 10:05:05;;;;;;;11.05;8.15;;;17.70;99.90;;;;;;4170278;28;20103;-75
2021/09/24 10:07:18;;;;;;;13.65;9.50;;;17.60;99.90;;;;;;4167073;28;20055;-75
2021/09/24 10:09:21;;;;;;;;;;;17.70;99.90;;;;;;4171014;28;20044;-75
2021/09/24 10:11:34;;;;;;;9.27;7.43;;;17.70;99.90;;;;;;4170614;28;19959;-75
2021/09/24 10:13:50;;;;;;;10.18;7.90;;;17.80;99.90;;;;;;4172260;28;20039;-75
2021/09/24 10:15:51;;;;;;;11.23;7.78;;;17.80;99.90;;;;;;4169589;28;20107;-76
2021/09/24 10:17:51;;;;;;;14.70;8.35;;;17.90;99.90;;;;;;4168003;28;20598;-75
2021/09/24 10:19:56;;;;;;;11.05;7.78;;;17.90;99.90;;;;;;4168959;28;20464;-75